Merlin, Oregon
Current Conditions -  °F | °C
As of 2:22 AM on Monday 20 Oct 2014 (Local Time) from KSXT Reporting Station
Moderate Rain Moderate Rain  
Wind Chill: 44°   Ceiling: 200
Heat Index: 49°   Visibility: 0.25mi
Dew Point: 49°   Wind: 13mph
Humidity: 100%   Direction: 200°SSW
Pressure: 29.82"   Gusts: NA
Location:  42.52°N, 123.42°W
Report Text: KSXT 200922Z AUTO 20011KT 1/4SM RA FG BKN002 OVC040 09/09 A2982 RMK AO2 RAB15 P0003 T00940094
Loading
Personal Weather Stations






























Interactive Weather Map
Tropical Storm Tracking
New forecast layout! Learn more

10-Day Weather Forecast

Advertisements
Track Severe Weather on mobile